Time,TemperatureF,DewpointF,PressureIn,WindDirection,WindDirectionDegrees,WindSpeedMPH,WindSpeedGustMPH,Humidity,HourlyPrecipIn,Conditions,Clouds,dailyrainin,SoftwareType,DateUTC
2013-09-24 00:00:00,75.2,59.0,29.82,North,0,0.0,0.0,57,0.00,,,0.00,WUHU216HW,2013-09-24 05:00:00,
2013-09-24 00:05:00,75.2,59.0,29.82,North,0,0.0,0.0,57,0.00,,,0.00,WUHU216HW,2013-09-24 05:05:00,
2013-09-24 00:30:00,74.2,58.4,29.82,North,0,0.0,0.0,58,0.00,,,0.00,WUHU216HW,2013-09-24 05:30:00,
2013-09-24 00:35:00,74.2,58.4,29.82,North,0,0.0,0.0,58,0.00,,,0.00,WUHU216HW,2013-09-24 05:35:00,
2013-09-24 01:00:00,73.4,59.1,29.83,North,0,0.0,0.0,61,0.00,,,0.00,WUHU216HW,2013-09-24 06:00:00,
2013-09-24 01:05:00,73.4,59.1,29.83,North,0,0.0,0.0,61,0.00,,,0.00,WUHU216HW,2013-09-24 06:05:00,
2013-09-24 01:30:00,72.7,59.0,29.83,North,0,0.0,0.0,62,0.00,,,0.00,WUHU216HW,2013-09-24 06:30:00,
2013-09-24 01:35:00,72.7,59.0,29.83,North,0,0.0,0.0,62,0.00,,,0.00,WUHU216HW,2013-09-24 06:35:00,
2013-09-24 02:00:00,72.0,60.0,29.83,North,0,0.0,0.0,66,0.00,,,0.00,WUHU216HW,2013-09-24 07:00:00,
2013-09-24 02:05:00,72.0,60.0,29.83,North,0,0.0,0.0,66,0.00,,,0.00,WUHU216HW,2013-09-24 07:05:00,
2013-09-24 02:30:00,72.4,60.3,29.84,North,0,0.0,0.0,66,0.00,,,0.00,WUHU216HW,2013-09-24 07:30:00,
2013-09-24 02:35:00,72.4,60.3,29.84,North,0,0.0,0.0,66,0.00,,,0.00,WUHU216HW,2013-09-24 07:35:00,
2013-09-24 03:00:00,72.5,60.5,29.84,North,0,0.0,0.0,66,0.00,,,0.00,WUHU216HW,2013-09-24 08:00:00,
2013-09-24 03:05:00,72.5,60.5,29.84,North,0,0.0,0.0,66,0.00,,,0.00,WUHU216HW,2013-09-24 08:05:00,
2013-09-24 03:30:00,72.0,60.4,29.84,North,0,0.0,0.0,67,0.00,,,0.00,WUHU216HW,2013-09-24 08:30:00,
2013-09-24 03:35:00,72.0,60.4,29.84,North,0,0.0,0.0,67,0.00,,,0.00,WUHU216HW,2013-09-24 08:35:00,
2013-09-24 04:00:00,71.3,59.8,29.84,North,0,0.0,0.0,67,0.00,,,0.00,WUHU216HW,2013-09-24 09:00:00,
2013-09-24 04:05:00,71.3,59.8,29.84,North,0,0.0,0.0,67,0.00,,,0.00,WUHU216HW,2013-09-24 09:05:00,
2013-09-24 04:30:00,71.1,60.4,29.84,North,0,0.0,0.0,69,0.00,,,0.00,WUHU216HW,2013-09-24 09:30:00,
2013-09-24 04:35:00,71.1,60.4,29.84,North,0,0.0,0.0,69,0.00,,,0.00,WUHU216HW,2013-09-24 09:35:00,
2013-09-24 05:00:00,71.1,60.4,29.85,North,0,0.0,0.0,69,0.00,,,0.00,WUHU216HW,2013-09-24 10:00:00,
2013-09-24 05:05:00,71.1,60.4,29.85,North,0,0.0,0.0,69,0.00,,,0.00,WUHU216HW,2013-09-24 10:05:00,
2013-09-24 05:30:00,71.1,60.8,29.86,North,0,0.0,0.0,70,0.00,,,0.00,WUHU216HW,2013-09-24 10:30:00,
2013-09-24 05:35:00,71.1,60.8,29.86,North,0,0.0,0.0,70,0.00,,,0.00,WUHU216HW,2013-09-24 10:35:00,
2013-09-24 06:00:00,71.3,61.0,29.86,North,0,0.0,0.0,70,0.00,,,0.00,WUHU216HW,2013-09-24 11:00:00,
2013-09-24 06:05:00,71.3,61.0,29.86,North,0,0.0,0.0,70,0.00,,,0.00,WUHU216HW,2013-09-24 11:05:00,
2013-09-24 06:30:00,70.9,61.4,29.87,North,0,0.0,0.0,72,0.00,,,0.00,WUHU216HW,2013-09-24 11:30:00,
2013-09-24 06:35:00,70.9,61.4,29.87,North,0,0.0,0.0,72,0.00,,,0.00,WUHU216HW,2013-09-24 11:35:00,
2013-09-24 07:00:00,69.5,60.4,29.88,North,0,0.0,0.0,73,0.00,,,0.00,WUHU216HW,2013-09-24 12:00:00,
2013-09-24 07:05:00,69.5,60.4,29.88,North,0,0.0,0.0,73,0.00,,,0.00,WUHU216HW,2013-09-24 12:05:00,
2013-09-24 07:30:00,68.8,60.1,29.88,North,0,0.0,0.0,74,0.00,,,0.00,WUHU216HW,2013-09-24 12:30:00,
2013-09-24 07:35:00,68.8,60.1,29.88,North,0,0.0,0.0,74,0.00,,,0.00,WUHU216HW,2013-09-24 12:35:00,
2013-09-24 08:00:00,70.6,61.8,29.89,North,0,0.0,0.0,74,0.00,,,0.00,WUHU216HW,2013-09-24 13:00:00,
2013-09-24 08:05:00,70.6,61.8,29.89,North,0,0.0,0.0,74,0.00,,,0.00,WUHU216HW,2013-09-24 13:05:00,
2013-09-24 08:30:00,73.1,62.8,29.89,North,0,0.0,0.0,70,0.00,,,0.00,WUHU216HW,2013-09-24 13:30:00,
2013-09-24 08:35:00,73.1,62.8,29.89,North,0,0.0,0.0,70,0.00,,,0.00,WUHU216HW,2013-09-24 13:35:00,
2013-09-24 09:00:00,76.5,65.2,29.89,North,0,0.0,0.0,68,0.00,,,0.00,WUHU216HW,2013-09-24 14:00:00,
2013-09-24 09:05:00,76.5,65.2,29.89,North,0,0.0,0.0,68,0.00,,,0.00,WUHU216HW,2013-09-24 14:05:00,
2013-09-24 09:30:00,78.8,66.5,29.90,North,0,0.0,0.0,66,0.00,,,0.00,WUHU216HW,2013-09-24 14:30:00,
2013-09-24 09:35:00,78.8,66.5,29.90,North,0,0.0,0.0,66,0.00,,,0.00,WUHU216HW,2013-09-24 14:35:00,
2013-09-24 10:00:00,80.1,66.8,29.91,North,0,0.0,0.0,64,0.00,,,0.00,WUHU216HW,2013-09-24 15:00:00,
2013-09-24 10:05:00,80.1,66.8,29.91,North,0,0.0,0.0,64,0.00,,,0.00,WUHU216HW,2013-09-24 15:05:00,
2013-09-24 10:30:00,80.5,67.1,29.92,North,0,0.0,0.0,64,0.00,,,0.00,WUHU216HW,2013-09-24 15:30:00,
2013-09-24 10:35:00,80.5,67.1,29.92,North,0,0.0,0.0,64,0.00,,,0.00,WUHU216HW,2013-09-24 15:35:00,
2013-09-24 11:00:00,80.8,67.1,29.92,North,0,0.0,0.0,63,0.00,,,0.00,WUHU216HW,2013-09-24 16:00:00,
2013-09-24 11:05:00,80.8,67.1,29.92,North,0,0.0,0.0,63,0.00,,,0.00,WUHU216HW,2013-09-24 16:05:00,
2013-09-24 11:30:00,81.9,67.2,29.92,North,0,0.0,0.0,61,0.00,,,0.00,WUHU216HW,2013-09-24 16:30:00,
2013-09-24 11:35:00,81.9,67.2,29.92,North,0,0.0,0.0,61,0.00,,,0.00,WUHU216HW,2013-09-24 16:35:00,
2013-09-24 12:00:00,83.2,66.3,29.91,North,0,0.0,0.0,57,0.00,,,0.00,WUHU216HW,2013-09-24 17:00:00,
2013-09-24 12:05:00,83.2,66.3,29.91,North,0,0.0,0.0,57,0.00,,,0.00,WUHU216HW,2013-09-24 17:05:00,
2013-09-24 12:30:00,84.8,65.8,29.91,North,0,0.0,0.0,53,0.00,,,0.00,WUHU216HW,2013-09-24 17:30:00,
2013-09-24 12:35:00,84.8,65.8,29.91,North,0,0.0,0.0,53,0.00,,,0.00,WUHU216HW,2013-09-24 17:35:00,
2013-09-24 13:00:00,86.6,63.3,29.89,North,0,0.0,0.0,46,0.00,,,0.00,WUHU216HW,2013-09-24 18:00:00,
2013-09-24 13:05:00,86.6,63.3,29.89,North,0,0.0,0.0,46,0.00,,,0.00,WUHU216HW,2013-09-24 18:05:00,
2013-09-24 13:30:00,88.0,64.0,29.89,North,0,0.0,0.0,45,0.00,,,0.00,WUHU216HW,2013-09-24 18:30:00,
2013-09-24 13:35:00,88.0,64.0,29.89,North,0,0.0,0.0,45,0.00,,,0.00,WUHU216HW,2013-09-24 18:35:00,
2013-09-24 14:00:00,88.9,63.5,29.88,North,0,0.0,0.0,43,0.00,,,0.00,WUHU216HW,2013-09-24 19:00:00,
2013-09-24 14:05:00,88.9,63.5,29.88,North,0,0.0,0.0,43,0.00,,,0.00,WUHU216HW,2013-09-24 19:05:00,
2013-09-24 14:30:00,90.2,61.0,29.87,North,0,0.0,0.0,38,0.00,,,0.00,WUHU216HW,2013-09-24 19:30:00,
2013-09-24 14:35:00,90.2,61.0,29.87,North,0,0.0,0.0,38,0.00,,,0.00,WUHU216HW,2013-09-24 19:35:00,
2013-09-24 15:00:00,90.4,61.9,29.86,North,0,0.0,0.0,39,0.00,,,0.00,WUHU216HW,2013-09-24 20:00:00,
2013-09-24 15:05:00,90.4,61.9,29.86,North,0,0.0,0.0,39,0.00,,,0.00,WUHU216HW,2013-09-24 20:05:00,
2013-09-24 15:30:00,90.7,60.0,29.85,North,0,0.0,0.0,36,0.00,,,0.00,WUHU216HW,2013-09-24 20:30:00,
2013-09-24 15:35:00,90.7,60.0,29.85,North,0,0.0,0.0,36,0.00,,,0.00,WUHU216HW,2013-09-24 20:35:00,
2013-09-24 16:00:00,90.9,59.3,29.85,North,0,0.0,0.0,35,0.00,,,0.00,WUHU216HW,2013-09-24 21:00:00,
2013-09-24 16:05:00,90.9,59.3,29.85,North,0,0.0,0.0,35,0.00,,,0.00,WUHU216HW,2013-09-24 21:05:00,
2013-09-24 16:30:00,90.9,58.5,29.84,North,0,0.0,0.0,34,0.00,,,0.00,WUHU216HW,2013-09-24 21:30:00,
2013-09-24 16:35:00,90.9,58.5,29.84,North,0,0.0,0.0,34,0.00,,,0.00,WUHU216HW,2013-09-24 21:35:00,
2013-09-24 17:00:00,90.7,57.5,29.83,North,0,0.0,0.0,33,0.00,,,0.00,WUHU216HW,2013-09-24 22:00:00,
2013-09-24 17:05:00,90.7,57.5,29.83,North,0,0.0,0.0,33,0.00,,,0.00,WUHU216HW,2013-09-24 22:05:00,
2013-09-24 17:30:00,90.4,57.3,29.83,North,0,0.0,0.0,33,0.00,,,0.00,WUHU216HW,2013-09-24 22:30:00,
2013-09-24 17:35:00,90.4,57.3,29.83,North,0,0.0,0.0,33,0.00,,,0.00,WUHU216HW,2013-09-24 22:35:00,
2013-09-24 18:00:00,89.6,55.8,29.83,North,0,0.0,0.0,32,0.00,,,0.00,WUHU216HW,2013-09-24 23:00:00,
2013-09-24 18:05:00,89.6,55.8,29.83,North,0,0.0,0.0,32,0.00,,,0.00,WUHU216HW,2013-09-24 23:05:00,
2013-09-24 18:30:00,88.7,55.0,29.83,North,0,0.0,0.0,32,0.00,,,0.00,WUHU216HW,2013-09-24 23:30:00,
2013-09-24 18:35:00,88.7,55.0,29.83,North,0,0.0,0.0,32,0.00,,,0.00,WUHU216HW,2013-09-24 23:35:00,
2013-09-24 19:00:00,87.5,53.9,29.83,North,0,0.0,0.0,32,0.00,,,0.00,WUHU216HW,2013-09-25 00:00:00,
2013-09-24 19:05:00,87.5,53.9,29.83,North,0,0.0,0.0,32,0.00,,,0.00,WUHU216HW,2013-09-25 00:05:00,
2013-09-24 19:30:00,85.3,53.6,29.83,North,0,0.0,0.0,34,0.00,,,0.00,WUHU216HW,2013-09-25 00:30:00,
2013-09-24 19:35:00,85.3,53.6,29.83,North,0,0.0,0.0,34,0.00,,,0.00,WUHU216HW,2013-09-25 00:35:00,
2013-09-24 20:00:00,82.4,53.5,29.83,North,0,0.0,0.0,37,0.00,,,0.00,WUHU216HW,2013-09-25 01:00:00,
2013-09-24 20:05:00,82.4,53.5,29.83,North,0,0.0,0.0,37,0.00,,,0.00,WUHU216HW,2013-09-25 01:05:00,
2013-09-24 20:30:00,81.7,53.6,29.84,North,0,0.0,0.0,38,0.00,,,0.00,WUHU216HW,2013-09-25 01:30:00,
2013-09-24 20:35:00,81.7,53.6,29.84,North,0,0.0,0.0,38,0.00,,,0.00,WUHU216HW,2013-09-25 01:35:00,
2013-09-24 21:00:00,80.6,52.7,29.85,North,0,0.0,0.0,38,0.00,,,0.00,WUHU216HW,2013-09-25 02:00:00,
2013-09-24 21:05:00,80.6,52.7,29.85,North,0,0.0,0.0,38,0.00,,,0.00,WUHU216HW,2013-09-25 02:05:00,
2013-09-24 21:30:00,79.6,52.5,29.86,North,0,0.0,0.0,39,0.00,,,0.00,WUHU216HW,2013-09-25 02:30:00,
2013-09-24 21:35:00,79.6,52.5,29.86,North,0,0.0,0.0,39,0.00,,,0.00,WUHU216HW,2013-09-25 02:35:00,
2013-09-24 22:00:00,79.0,51.9,29.86,North,0,0.0,0.0,39,0.00,,,0.00,WUHU216HW,2013-09-25 03:00:00,
2013-09-24 22:05:00,79.0,51.9,29.86,North,0,0.0,0.0,39,0.00,,,0.00,WUHU216HW,2013-09-25 03:05:00,
2013-09-24 22:30:00,77.8,51.6,29.86,North,0,0.0,0.0,40,0.00,,,0.00,WUHU216HW,2013-09-25 03:30:00,
2013-09-24 22:35:00,77.8,51.6,29.86,North,0,0.0,0.0,40,0.00,,,0.00,WUHU216HW,2013-09-25 03:35:00,
2013-09-24 23:00:00,76.5,51.7,29.86,North,0,0.0,0.0,42,0.00,,,0.00,WUHU216HW,2013-09-25 04:00:00,
2013-09-24 23:01:00,76.5,51.7,29.86,North,0,0.0,0.0,42,0.00,,,0.00,WUHU216HW,2013-09-25 04:01:00,
2013-09-24 23:02:00,76.5,51.7,29.86,North,0,0.0,0.0,42,0.00,,,0.00,WUHU216HW,2013-09-25 04:02:00,
2013-09-24 23:07:00,76.5,51.7,29.86,North,0,0.0,0.0,42,0.00,,,0.00,WUHU216HW,2013-09-25 04:07:00,
2013-09-24 23:30:00,76.0,51.2,29.86,North,0,0.0,0.0,42,0.00,,,0.00,WUHU216HW,2013-09-25 04:30:00,
2013-09-24 23:35:00,76.0,51.2,29.86,North,0,0.0,0.0,42,0.00,,,0.00,WUHU216HW,2013-09-25 04:35:00,